sensor_id;sensor_type;location;lat;lon;timestamp;pressure;altitude;pressure_sealevel;temperature;humidity
19114;BME280;9689;51.052;13.772;2023-12-22T00:00:36;97809.59;;;5.23;69.80
19114;BME280;9689;51.052;13.772;2023-12-22T00:05:38;97783.78;;;5.23;69.74
19114;BME280;9689;51.052;13.772;2023-12-22T00:10:39;97780.94;;;5.29;70.00
19114;BME280;9689;51.052;13.772;2023-12-22T00:15:40;97779.44;;;5.23;69.15
19114;BME280;9689;51.052;13.772;2023-12-22T00:20:43;97789.84;;;5.22;69.14
19114;BME280;9689;51.052;13.772;2023-12-22T00:25:43;97807.16;;;5.18;69.75
19114;BME280;9689;51.052;13.772;2023-12-22T00:30:44;97794.19;;;5.20;68.71
19114;BME280;9689;51.052;13.772;2023-12-22T00:35:46;97789.88;;;5.20;68.38
19114;BME280;9689;51.052;13.772;2023-12-22T00:40:47;97802.13;;;5.15;69.18
19114;BME280;9689;51.052;13.772;2023-12-22T00:45:48;97814.13;;;5.16;69.09
19114;BME280;9689;51.052;13.772;2023-12-22T00:50:50;97781.56;;;5.14;70.17
19114;BME280;9689;51.052;13.772;2023-12-22T00:55:51;97778.78;;;5.18;68.72
19114;BME280;9689;51.052;13.772;2023-12-22T01:00:51;97807.94;;;5.20;67.75
19114;BME280;9689;51.052;13.772;2023-12-22T01:05:54;97812.75;;;5.29;67.78
19114;BME280;9689;51.052;13.772;2023-12-22T01:10:54;97813.50;;;5.33;67.15
19114;BME280;9689;51.052;13.772;2023-12-22T01:15:55;97822.91;;;5.34;67.43
19114;BME280;9689;51.052;13.772;2023-12-22T01:20:57;97835.00;;;5.33;67.25
19114;BME280;9689;51.052;13.772;2023-12-22T01:25:58;97887.69;;;5.28;67.90
19114;BME280;9689;51.052;13.772;2023-12-22T01:31:00;97836.84;;;5.30;68.14
19114;BME280;9689;51.052;13.772;2023-12-22T01:36:02;97823.06;;;5.31;66.96
19114;BME280;9689;51.052;13.772;2023-12-22T01:41:03;97840.38;;;5.27;66.98
19114;BME280;9689;51.052;13.772;2023-12-22T01:46:05;97853.28;;;5.27;67.29
19114;BME280;9689;51.052;13.772;2023-12-22T01:51:08;97868.16;;;5.21;68.32
19114;BME280;9689;51.052;13.772;2023-12-22T01:56:09;97866.75;;;5.14;67.81
19114;BME280;9689;51.052;13.772;2023-12-22T02:01:10;97865.00;;;5.14;68.27
19114;BME280;9689;51.052;13.772;2023-12-22T02:06:12;97894.06;;;4.96;68.97
19114;BME280;9689;51.052;13.772;2023-12-22T02:11:13;97906.09;;;4.72;71.57
19114;BME280;9689;51.052;13.772;2023-12-22T02:16:18;97905.38;;;4.43;73.95
19114;BME280;9689;51.052;13.772;2023-12-22T02:21:21;97920.59;;;4.49;73.67
19114;BME280;9689;51.052;13.772;2023-12-22T02:26:27;97907.81;;;4.46;74.55
19114;BME280;9689;51.052;13.772;2023-12-22T02:31:35;97906.94;;;4.47;73.82
19114;BME280;9689;51.052;13.772;2023-12-22T02:36:38;97898.28;;;4.48;73.35
19114;BME280;9689;51.052;13.772;2023-12-22T02:41:42;97898.50;;;4.42;73.64
19114;BME280;9689;51.052;13.772;2023-12-22T02:46:43;97889.06;;;4.41;73.37
19114;BME280;9689;51.052;13.772;2023-12-22T02:51:44;97900.22;;;4.42;73.14
19114;BME280;9689;51.052;13.772;2023-12-22T02:56:47;97918.16;;;4.46;73.00
19114;BME280;9689;51.052;13.772;2023-12-22T03:01:47;97889.72;;;4.48;71.94
19114;BME280;9689;51.052;13.772;2023-12-22T03:06:48;97868.00;;;4.55;70.61
19114;BME280;9689;51.052;13.772;2023-12-22T03:11:50;97877.28;;;4.59;70.55
19114;BME280;9689;51.052;13.772;2023-12-22T03:16:54;97871.09;;;4.40;72.63
19114;BME280;9689;51.052;13.772;2023-12-22T03:21:55;97870.00;;;4.47;71.27
19114;BME280;9689;51.052;13.772;2023-12-22T03:26:57;97868.09;;;4.52;72.00
19114;BME280;9689;51.052;13.772;2023-12-22T03:31:58;97874.69;;;4.61;69.86
19114;BME280;9689;51.052;13.772;2023-12-22T03:36:59;97846.75;;;4.72;67.82
19114;BME280;9689;51.052;13.772;2023-12-22T03:42:01;97839.59;;;4.80;67.64
19114;BME280;9689;51.052;13.772;2023-12-22T03:47:02;97853.31;;;4.80;67.85
19114;BME280;9689;51.052;13.772;2023-12-22T03:52:03;97865.06;;;4.89;66.86
19114;BME280;9689;51.052;13.772;2023-12-22T03:57:05;97862.34;;;4.92;67.22
19114;BME280;9689;51.052;13.772;2023-12-22T04:02:06;97873.28;;;4.99;64.87
19114;BME280;9689;51.052;13.772;2023-12-22T04:07:07;97860.28;;;5.02;64.62
19114;BME280;9689;51.052;13.772;2023-12-22T04:12:09;97877.44;;;5.03;64.25
19114;BME280;9689;51.052;13.772;2023-12-22T04:17:10;97856.63;;;5.07;63.89
19114;BME280;9689;51.052;13.772;2023-12-22T04:22:11;97842.03;;;5.06;63.53
19114;BME280;9689;51.052;13.772;2023-12-22T04:27:13;97859.63;;;4.97;64.44
19114;BME280;9689;51.052;13.772;2023-12-22T04:32:13;97871.63;;;4.98;64.40
19114;BME280;9689;51.052;13.772;2023-12-22T04:37:14;97905.25;;;4.95;65.50
19114;BME280;9689;51.052;13.772;2023-12-22T04:42:16;97868.47;;;4.90;65.68
19114;BME280;9689;51.052;13.772;2023-12-22T04:47:18;97880.94;;;4.78;67.09
19114;BME280;9689;51.052;13.772;2023-12-22T04:52:18;97879.22;;;4.77;67.13
19114;BME280;9689;51.052;13.772;2023-12-22T04:57:21;97862.97;;;4.75;66.12
19114;BME280;9689;51.052;13.772;2023-12-22T05:02:22;97850.25;;;4.71;66.35
19114;BME280;9689;51.052;13.772;2023-12-22T05:07:23;97857.13;;;4.70;66.94
19114;BME280;9689;51.052;13.772;2023-12-22T05:12:25;97864.81;;;4.72;67.00
19114;BME280;9689;51.052;13.772;2023-12-22T05:17:26;97851.97;;;4.70;68.11
19114;BME280;9689;51.052;13.772;2023-12-22T05:22:26;97876.63;;;4.54;69.45
19114;BME280;9689;51.052;13.772;2023-12-22T05:27:32;97876.13;;;4.43;69.76
19114;BME280;9689;51.052;13.772;2023-12-22T05:32:33;97868.56;;;4.38;70.06
19114;BME280;9689;51.052;13.772;2023-12-22T05:37:34;97875.00;;;4.27;70.48
19114;BME280;9689;51.052;13.772;2023-12-22T05:42:36;97878.75;;;4.16;71.54
19114;BME280;9689;51.052;13.772;2023-12-22T05:47:37;97904.81;;;4.07;73.08
19114;BME280;9689;51.052;13.772;2023-12-22T05:52:37;97879.94;;;4.06;71.54
19114;BME280;9689;51.052;13.772;2023-12-22T05:57:40;97882.38;;;4.11;71.06
19114;BME280;9689;51.052;13.772;2023-12-22T06:02:40;97887.38;;;4.15;71.23
19114;BME280;9689;51.052;13.772;2023-12-22T06:07:41;97902.00;;;4.15;71.56
19114;BME280;9689;51.052;13.772;2023-12-22T06:12:43;97915.66;;;4.17;72.31
19114;BME280;9689;51.052;13.772;2023-12-22T06:17:44;97910.63;;;4.14;71.70
19114;BME280;9689;51.052;13.772;2023-12-22T06:22:45;97909.78;;;4.13;72.49
19114;BME280;9689;51.052;13.772;2023-12-22T06:27:47;97903.69;;;4.16;71.03
19114;BME280;9689;51.052;13.772;2023-12-22T06:32:48;97922.56;;;4.16;70.43
19114;BME280;9689;51.052;13.772;2023-12-22T06:37:49;97896.16;;;4.10;71.54
19114;BME280;9689;51.052;13.772;2023-12-22T06:42:52;97888.44;;;4.10;70.57
19114;BME280;9689;51.052;13.772;2023-12-22T06:47:53;97896.13;;;4.11;70.58
19114;BME280;9689;51.052;13.772;2023-12-22T06:52:54;97902.00;;;4.15;68.58
19114;BME280;9689;51.052;13.772;2023-12-22T06:57:57;97886.78;;;4.07;69.67
19114;BME280;9689;51.052;13.772;2023-12-22T07:02:57;97890.31;;;4.05;69.58
19114;BME280;9689;51.052;13.772;2023-12-22T07:07:58;97894.91;;;3.95;69.45
19114;BME280;9689;51.052;13.772;2023-12-22T07:13:01;97939.56;;;3.95;70.13
19114;BME280;9689;51.052;13.772;2023-12-22T07:18:04;97904.44;;;3.93;70.36
19114;BME280;9689;51.052;13.772;2023-12-22T07:23:05;97916.44;;;3.94;70.02
19114;BME280;9689;51.052;13.772;2023-12-22T07:28:07;97953.41;;;3.93;70.50
19114;BME280;9689;51.052;13.772;2023-12-22T07:33:08;97952.34;;;3.98;69.96
19114;BME280;9689;51.052;13.772;2023-12-22T07:38:11;97940.16;;;4.04;69.88
19114;BME280;9689;51.052;13.772;2023-12-22T07:43:13;97959.03;;;4.04;70.48
19114;BME280;9689;51.052;13.772;2023-12-22T07:48:14;97985.03;;;3.96;72.14
19114;BME280;9689;51.052;13.772;2023-12-22T07:53:14;98016.00;;;3.67;74.98
19114;BME280;9689;51.052;13.772;2023-12-22T07:58:18;98033.81;;;3.44;78.15
19114;BME280;9689;51.052;13.772;2023-12-22T08:03:19;98036.22;;;3.19;80.73
19114;BME280;9689;51.052;13.772;2023-12-22T08:08:20;98090.88;;;2.94;82.79
19114;BME280;9689;51.052;13.772;2023-12-22T08:13:22;98096.22;;;2.12;87.46
19114;BME280;9689;51.052;13.772;2023-12-22T08:18:22;98094.69;;;1.62;90.77
19114;BME280;9689;51.052;13.772;2023-12-22T08:23:23;98097.91;;;1.28;92.75
19114;BME280;9689;51.052;13.772;2023-12-22T08:28:31;98068.09;;;1.23;94.34
19114;BME280;9689;51.052;13.772;2023-12-22T08:33:32;98085.06;;;1.28;95.06
19114;BME280;9689;51.052;13.772;2023-12-22T08:38:32;98080.03;;;1.24;95.49
19114;BME280;9689;51.052;13.772;2023-12-22T08:43:35;98099.03;;;1.13;96.31
19114;BME280;9689;51.052;13.772;2023-12-22T08:48:38;98121.97;;;1.21;96.95
19114;BME280;9689;51.052;13.772;2023-12-22T08:53:39;98115.09;;;1.25;97.75
19114;BME280;9689;51.052;13.772;2023-12-22T08:58:41;98107.81;;;1.47;97.36
19114;BME280;9689;51.052;13.772;2023-12-22T09:03:41;98147.88;;;1.55;96.92
19114;BME280;9689;51.052;13.772;2023-12-22T09:08:46;98151.19;;;1.62;97.31
19114;BME280;9689;51.052;13.772;2023-12-22T09:13:48;98165.41;;;1.78;97.22
19114;BME280;9689;51.052;13.772;2023-12-22T09:18:49;98147.16;;;1.93;96.89
19114;BME280;9689;51.052;13.772;2023-12-22T09:23:50;98153.47;;;2.19;90.07
19114;BME280;9689;51.052;13.772;2023-12-22T09:28:52;98158.47;;;2.25;88.06
19114;BME280;9689;51.052;13.772;2023-12-22T09:33:53;98179.38;;;2.08;89.81
19114;BME280;9689;51.052;13.772;2023-12-22T09:38:54;98157.16;;;2.06;91.90
19114;BME280;9689;51.052;13.772;2023-12-22T09:43:57;98170.38;;;2.29;91.26
19114;BME280;9689;51.052;13.772;2023-12-22T09:49:01;98142.59;;;2.46;90.05
19114;BME280;9689;51.052;13.772;2023-12-22T09:54:03;98166.75;;;2.76;86.69
19114;BME280;9689;51.052;13.772;2023-12-22T09:59:06;98165.25;;;3.03;84.95
19114;BME280;9689;51.052;13.772;2023-12-22T10:04:07;98146.13;;;3.15;84.28
19114;BME280;9689;51.052;13.772;2023-12-22T10:09:08;98136.06;;;3.40;79.13
19114;BME280;9689;51.052;13.772;2023-12-22T10:14:12;98124.28;;;3.62;74.78
19114;BME280;9689;51.052;13.772;2023-12-22T10:19:20;98215.66;;;3.80;70.92
19114;BME280;9689;51.052;13.772;2023-12-22T10:24:40;98165.25;;;4.03;70.18
19114;BME280;9689;51.052;13.772;2023-12-22T10:29:44;98247.28;;;4.19;68.11
19114;BME280;9689;51.052;13.772;2023-12-22T10:34:44;98213.81;;;4.18;67.10
19114;BME280;9689;51.052;13.772;2023-12-22T10:39:45;98209.66;;;4.12;68.21
19114;BME280;9689;51.052;13.772;2023-12-22T10:44:50;98188.44;;;4.03;69.30
19114;BME280;9689;51.052;13.772;2023-12-22T10:49:51;98206.34;;;4.07;70.04
19114;BME280;9689;51.052;13.772;2023-12-22T10:54:56;98182.16;;;4.13;69.59
19114;BME280;9689;51.052;13.772;2023-12-22T10:59:59;98170.19;;;4.10;69.97
19114;BME280;9689;51.052;13.772;2023-12-22T11:05:04;98194.66;;;3.95;72.66
19114;BME280;9689;51.052;13.772;2023-12-22T11:10:07;98245.31;;;2.91;83.82
19114;BME280;9689;51.052;13.772;2023-12-22T11:15:10;98207.31;;;2.65;87.17
19114;BME280;9689;51.052;13.772;2023-12-22T11:20:12;98185.00;;;2.66;88.05
19114;BME280;9689;51.052;13.772;2023-12-22T11:25:14;98187.28;;;2.79;87.65
19114;BME280;9689;51.052;13.772;2023-12-22T11:30:17;98158.69;;;2.92;86.71
19114;BME280;9689;51.052;13.772;2023-12-22T11:35:20;98139.91;;;3.24;85.07
19114;BME280;9689;51.052;13.772;2023-12-22T11:40:30;98177.06;;;3.46;83.36
19114;BME280;9689;51.052;13.772;2023-12-22T11:45:33;98143.28;;;3.58;81.43
19114;BME280;9689;51.052;13.772;2023-12-22T11:50:34;98131.94;;;3.65;79.93
19114;BME280;9689;51.052;13.772;2023-12-22T11:55:56;98124.63;;;3.81;78.92
19114;BME280;9689;51.052;13.772;2023-12-22T12:01:01;98116.50;;;3.95;77.42
19114;BME280;9689;51.052;13.772;2023-12-22T12:06:16;98108.50;;;4.04;74.87
19114;BME280;9689;51.052;13.772;2023-12-22T12:11:22;98118.44;;;4.16;76.10
19114;BME280;9689;51.052;13.772;2023-12-22T12:16:25;98121.09;;;4.43;75.17
19114;BME280;9689;51.052;13.772;2023-12-22T12:21:26;98109.34;;;4.62;72.98
19114;BME280;9689;51.052;13.772;2023-12-22T12:26:27;98089.00;;;4.79;72.71
19114;BME280;9689;51.052;13.772;2023-12-22T12:31:37;98081.91;;;4.86;73.57
19114;BME280;9689;51.052;13.772;2023-12-22T12:36:38;98077.88;;;4.77;73.74
19114;BME280;9689;51.052;13.772;2023-12-22T12:41:42;98090.00;;;4.75;72.83
19114;BME280;9689;51.052;13.772;2023-12-22T12:46:44;98092.59;;;4.47;72.58
19114;BME280;9689;51.052;13.772;2023-12-22T12:51:47;98118.75;;;3.76;76.91
19114;BME280;9689;51.052;13.772;2023-12-22T12:56:48;98111.19;;;3.39;80.47
19114;BME280;9689;51.052;13.772;2023-12-22T13:01:51;98121.97;;;3.19;82.41
19114;BME280;9689;51.052;13.772;2023-12-22T13:06:53;98105.00;;;3.14;83.26
19114;BME280;9689;51.052;13.772;2023-12-22T13:11:54;98113.13;;;2.95;85.86
19114;BME280;9689;51.052;13.772;2023-12-22T13:16:57;98119.88;;;2.65;88.92
19114;BME280;9689;51.052;13.772;2023-12-22T13:21:58;98131.97;;;2.60;91.45
19114;BME280;9689;51.052;13.772;2023-12-22T13:27:01;98139.84;;;2.54;91.87
19114;BME280;9689;51.052;13.772;2023-12-22T13:32:05;98148.66;;;2.42;92.75
19114;BME280;9689;51.052;13.772;2023-12-22T13:37:06;98135.28;;;2.28;93.08
19114;BME280;9689;51.052;13.772;2023-12-22T13:42:14;98154.28;;;2.21;94.21
19114;BME280;9689;51.052;13.772;2023-12-22T13:47:16;98145.09;;;2.11;95.03
19114;BME280;9689;51.052;13.772;2023-12-22T13:52:27;98154.59;;;2.06;95.98
19114;BME280;9689;51.052;13.772;2023-12-22T13:57:30;98147.88;;;1.98;95.79
19114;BME280;9689;51.052;13.772;2023-12-22T14:02:33;98165.97;;;1.94;96.87
19114;BME280;9689;51.052;13.772;2023-12-22T14:07:34;98158.31;;;1.91;96.73
19114;BME280;9689;51.052;13.772;2023-12-22T14:12:35;98159.31;;;1.84;96.90
19114;BME280;9689;51.052;13.772;2023-12-22T14:17:38;98173.00;;;1.84;97.82
19114;BME280;9689;51.052;13.772;2023-12-22T14:22:42;98172.25;;;1.79;96.75
19114;BME280;9689;51.052;13.772;2023-12-22T14:27:42;98174.75;;;1.84;96.76
19114;BME280;9689;51.052;13.772;2023-12-22T14:32:44;98168.56;;;1.91;96.93
19114;BME280;9689;51.052;13.772;2023-12-22T14:37:45;98161.75;;;1.90;96.37
19114;BME280;9689;51.052;13.772;2023-12-22T14:42:47;98176.44;;;1.85;96.71
19114;BME280;9689;51.052;13.772;2023-12-22T14:47:49;98158.34;;;1.89;97.25
19114;BME280;9689;51.052;13.772;2023-12-22T14:52:51;98155.81;;;1.88;97.53
19114;BME280;9689;51.052;13.772;2023-12-22T14:57:52;98162.59;;;1.90;97.55
19114;BME280;9689;51.052;13.772;2023-12-22T15:02:55;98172.75;;;1.96;97.87
19114;BME280;9689;51.052;13.772;2023-12-22T15:07:55;98182.03;;;2.04;97.79
19114;BME280;9689;51.052;13.772;2023-12-22T15:12:56;98175.94;;;2.09;97.34
19114;BME280;9689;51.052;13.772;2023-12-22T15:17:59;98181.81;;;2.14;97.37
19114;BME280;9689;51.052;13.772;2023-12-22T15:22:59;98176.63;;;2.17;96.70
19114;BME280;9689;51.052;13.772;2023-12-22T15:28:00;98171.31;;;2.26;95.78
19114;BME280;9689;51.052;13.772;2023-12-22T15:33:04;98162.69;;;2.29;96.01
19114;BME280;9689;51.052;13.772;2023-12-22T15:38:04;98141.06;;;2.38;95.23
19114;BME280;9689;51.052;13.772;2023-12-22T15:43:05;98138.38;;;2.42;95.09
19114;BME280;9689;51.052;13.772;2023-12-22T15:48:09;98130.47;;;2.53;95.14
19114;BME280;9689;51.052;13.772;2023-12-22T15:53:10;98138.84;;;2.61;95.05
19114;BME280;9689;51.052;13.772;2023-12-22T15:58:10;98158.38;;;2.68;94.93
19114;BME280;9689;51.052;13.772;2023-12-22T16:03:13;98171.09;;;2.74;94.73
19114;BME280;9689;51.052;13.772;2023-12-22T16:08:13;98169.50;;;2.70;94.84
19114;BME280;9689;51.052;13.772;2023-12-22T16:13:14;98135.25;;;2.67;94.68
19114;BME280;9689;51.052;13.772;2023-12-22T16:18:16;98133.66;;;2.63;95.11
19114;BME280;9689;51.052;13.772;2023-12-22T16:23:19;98150.69;;;2.67;94.44
19114;BME280;9689;51.052;13.772;2023-12-22T16:28:21;98143.31;;;2.51;94.74
19114;BME280;9689;51.052;13.772;2023-12-22T16:33:24;98167.69;;;2.34;96.00
19114;BME280;9689;51.052;13.772;2023-12-22T16:38:26;98160.72;;;1.98;96.52
19114;BME280;9689;51.052;13.772;2023-12-22T16:43:27;98172.88;;;1.90;97.66
19114;BME280;9689;51.052;13.772;2023-12-22T16:48:29;98177.81;;;1.99;97.24
19114;BME280;9689;51.052;13.772;2023-12-22T16:53:30;98184.50;;;2.08;96.59
19114;BME280;9689;51.052;13.772;2023-12-22T16:58:31;98169.13;;;2.07;96.36
19114;BME280;9689;51.052;13.772;2023-12-22T17:03:33;98167.41;;;2.07;96.33
19114;BME280;9689;51.052;13.772;2023-12-22T17:08:37;98187.13;;;2.05;96.21
19114;BME280;9689;51.052;13.772;2023-12-22T17:13:38;98166.63;;;2.04;95.60
19114;BME280;9689;51.052;13.772;2023-12-22T17:18:40;98144.38;;;2.03;96.25
19114;BME280;9689;51.052;13.772;2023-12-22T17:23:41;98154.78;;;1.96;96.41
19114;BME280;9689;51.052;13.772;2023-12-22T17:28:46;98157.31;;;1.98;96.33
19114;BME280;9689;51.052;13.772;2023-12-22T17:33:49;98158.25;;;1.94;96.38
19114;BME280;9689;51.052;13.772;2023-12-22T17:38:50;98167.03;;;1.82;96.00
19114;BME280;9689;51.052;13.772;2023-12-22T17:43:51;98159.63;;;1.68;97.24
19114;BME280;9689;51.052;13.772;2023-12-22T17:48:54;98161.63;;;1.53;97.85
19114;BME280;9689;51.052;13.772;2023-12-22T17:53:55;98170.63;;;1.27;98.35
19114;BME280;9689;51.052;13.772;2023-12-22T17:58:55;98178.84;;;0.94;99.58
19114;BME280;9689;51.052;13.772;2023-12-22T18:03:57;98194.53;;;0.74;100.00
19114;BME280;9689;51.052;13.772;2023-12-22T18:08:58;98185.38;;;0.57;100.00
19114;BME280;9689;51.052;13.772;2023-12-22T18:13:59;98186.31;;;0.53;100.00
19114;BME280;9689;51.052;13.772;2023-12-22T18:19:01;98207.81;;;0.40;100.00
19114;BME280;9689;51.052;13.772;2023-12-22T18:24:02;98207.00;;;0.38;100.00
19114;BME280;9689;51.052;13.772;2023-12-22T18:29:03;98207.06;;;0.35;100.00
19114;BME280;9689;51.052;13.772;2023-12-22T18:34:05;98224.06;;;0.39;100.00
19114;BME280;9689;51.052;13.772;2023-12-22T18:39:06;98217.31;;;0.35;100.00
19114;BME280;9689;51.052;13.772;2023-12-22T18:44:07;98219.75;;;0.43;100.00
19114;BME280;9689;51.052;13.772;2023-12-22T18:49:09;98247.97;;;0.40;100.00
19114;BME280;9689;51.052;13.772;2023-12-22T18:54:13;98235.25;;;0.32;100.00
19114;BME280;9689;51.052;13.772;2023-12-22T18:59:14;98241.31;;;0.25;100.00
19114;BME280;9689;51.052;13.772;2023-12-22T19:04:17;98242.25;;;0.19;100.00
19114;BME280;9689;51.052;13.772;2023-12-22T19:09:18;98245.75;;;0.11;100.00
19114;BME280;9689;51.052;13.772;2023-12-22T19:14:19;98227.03;;;0.06;100.00
19114;BME280;9689;51.052;13.772;2023-12-22T19:19:21;98237.25;;;0.07;100.00
19114;BME280;9689;51.052;13.772;2023-12-22T19:24:21;98232.13;;;0.10;100.00
19114;BME280;9689;51.052;13.772;2023-12-22T19:29:22;98250.03;;;0.10;100.00
19114;BME280;9689;51.052;13.772;2023-12-22T19:34:26;98235.53;;;0.11;100.00
19114;BME280;9689;51.052;13.772;2023-12-22T19:39:29;98226.03;;;0.17;100.00
19114;BME280;9689;51.052;13.772;2023-12-22T19:44:30;98224.22;;;0.27;100.00
19114;BME280;9689;51.052;13.772;2023-12-22T19:49:32;98218.06;;;0.40;100.00
19114;BME280;9689;51.052;13.772;2023-12-22T19:54:35;98219.63;;;0.52;100.00
19114;BME280;9689;51.052;13.772;2023-12-22T19:59:35;98208.41;;;0.61;100.00
19114;BME280;9689;51.052;13.772;2023-12-22T20:04:37;98209.97;;;0.71;100.00
19114;BME280;9689;51.052;13.772;2023-12-22T20:09:38;98238.81;;;0.85;100.00
19114;BME280;9689;51.052;13.772;2023-12-22T20:14:40;98254.78;;;1.04;100.00
19114;BME280;9689;51.052;13.772;2023-12-22T20:19:42;98265.66;;;1.20;100.00
19114;BME280;9689;51.052;13.772;2023-12-22T20:24:47;98257.75;;;1.33;99.53
19114;BME280;9689;51.052;13.772;2023-12-22T20:29:48;98258.50;;;1.38;97.96
19114;BME280;9689;51.052;13.772;2023-12-22T20:34:50;98264.44;;;1.44;98.03
19114;BME280;9689;51.052;13.772;2023-12-22T20:39:51;98272.13;;;1.44;97.84
19114;BME280;9689;51.052;13.772;2023-12-22T20:44:52;98261.00;;;1.45;97.80
19114;BME280;9689;51.052;13.772;2023-12-22T20:49:54;98280.63;;;1.47;98.10
19114;BME280;9689;51.052;13.772;2023-12-22T20:54:55;98289.97;;;1.51;98.05
19114;BME280;9689;51.052;13.772;2023-12-22T20:59:55;98296.81;;;1.52;98.11
19114;BME280;9689;51.052;13.772;2023-12-22T21:04:58;98291.59;;;1.55;98.03
19114;BME280;9689;51.052;13.772;2023-12-22T21:09:59;98297.72;;;1.50;97.94
19114;BME280;9689;51.052;13.772;2023-12-22T21:15:00;98293.50;;;1.44;98.26
19114;BME280;9689;51.052;13.772;2023-12-22T21:20:02;98289.22;;;1.45;98.75
19114;BME280;9689;51.052;13.772;2023-12-22T21:25:04;98308.00;;;1.47;98.85
19114;BME280;9689;51.052;13.772;2023-12-22T21:30:06;98297.75;;;1.45;98.80
19114;BME280;9689;51.052;13.772;2023-12-22T21:35:08;98286.59;;;1.49;98.58
19114;BME280;9689;51.052;13.772;2023-12-22T21:40:10;98287.41;;;1.51;98.72
19114;BME280;9689;51.052;13.772;2023-12-22T21:45:12;98301.06;;;1.53;98.67
19114;BME280;9689;51.052;13.772;2023-12-22T21:50:14;98293.22;;;1.62;97.60
19114;BME280;9689;51.052;13.772;2023-12-22T21:55:15;98307.69;;;1.68;97.74
19114;BME280;9689;51.052;13.772;2023-12-22T22:00:16;98286.19;;;1.72;96.99
19114;BME280;9689;51.052;13.772;2023-12-22T22:05:19;98289.59;;;1.73;96.33
19114;BME280;9689;51.052;13.772;2023-12-22T22:10:20;98275.00;;;1.76;95.90
19114;BME280;9689;51.052;13.772;2023-12-22T22:15:20;98284.31;;;1.82;95.04
19114;BME280;9689;51.052;13.772;2023-12-22T22:20:22;98285.06;;;1.88;93.53
19114;BME280;9689;51.052;13.772;2023-12-22T22:25:23;98300.31;;;1.97;92.10
19114;BME280;9689;51.052;13.772;2023-12-22T22:30:24;98324.91;;;2.11;90.16
19114;BME280;9689;51.052;13.772;2023-12-22T22:35:27;98338.41;;;2.22;88.67
19114;BME280;9689;51.052;13.772;2023-12-22T22:40:27;98329.56;;;2.37;87.47
19114;BME280;9689;51.052;13.772;2023-12-22T22:45:30;98330.31;;;2.42;87.25
19114;BME280;9689;51.052;13.772;2023-12-22T22:50:32;98345.56;;;2.52;86.07
19114;BME280;9689;51.052;13.772;2023-12-22T22:55:34;98308.59;;;2.58;85.86
19114;BME280;9689;51.052;13.772;2023-12-22T23:00:36;98325.66;;;2.62;85.37
19114;BME280;9689;51.052;13.772;2023-12-22T23:05:38;98331.81;;;2.53;86.29
19114;BME280;9689;51.052;13.772;2023-12-22T23:10:39;98336.31;;;2.44;87.27
19114;BME280;9689;51.052;13.772;2023-12-22T23:15:40;98337.97;;;2.46;87.12
19114;BME280;9689;51.052;13.772;2023-12-22T23:20:42;98360.19;;;2.49;86.21
19114;BME280;9689;51.052;13.772;2023-12-22T23:25:43;98353.28;;;2.51;86.54
19114;BME280;9689;51.052;13.772;2023-12-22T23:30:45;98348.06;;;2.55;85.96
19114;BME280;9689;51.052;13.772;2023-12-22T23:35:47;98381.34;;;2.63;84.95
19114;BME280;9689;51.052;13.772;2023-12-22T23:40:48;98381.28;;;2.66;85.30
19114;BME280;9689;51.052;13.772;2023-12-22T23:45:49;98376.06;;;2.69;85.04
19114;BME280;9689;51.052;13.772;2023-12-22T23:50:51;98395.75;;;2.72;83.02
19114;BME280;9689;51.052;13.772;2023-12-22T23:55:52;98363.19;;;2.71;83.19
